createdAt,value
2017-06-24T00:00:00.439Z,0
2017-06-24T00:01:01.165Z,0
2017-06-24T00:02:01.885Z,0
2017-06-24T00:03:02.865Z,0
2017-06-24T00:04:03.584Z,0
2017-06-24T00:05:04.310Z,0
2017-06-24T00:06:05.035Z,0
2017-06-24T00:07:05.759Z,0
2017-06-24T00:08:06.736Z,0
2017-06-24T00:09:07.460Z,0
2017-06-24T00:10:08.183Z,0
2017-06-24T00:11:09.161Z,0
2017-06-24T00:12:09.888Z,0
2017-06-24T00:13:10.613Z,0
2017-06-24T00:14:11.338Z,0
2017-06-24T00:15:12.062Z,0
2017-06-24T00:16:13.035Z,0
2017-06-24T00:17:13.759Z,0
2017-06-24T00:18:14.488Z,0
2017-06-24T00:19:15.213Z,0
2017-06-24T00:20:15.935Z,0
2017-06-24T00:21:16.912Z,0
2017-06-24T00:22:17.639Z,0
2017-06-24T00:23:18.361Z,0
2017-06-24T00:24:19.086Z,0
2017-06-24T00:25:19.810Z,0
2017-06-24T00:26:20.783Z,0
2017-06-24T00:27:21.510Z,0
2017-06-24T00:28:22.235Z,0
2017-06-24T00:29:22.962Z,0
2017-06-24T00:30:23.684Z,0
2017-06-24T00:31:24.657Z,0
2017-06-24T00:32:25.383Z,0
2017-06-24T00:33:26.118Z,0
2017-06-24T00:34:26.841Z,0
2017-06-24T00:35:27.566Z,0
2017-06-24T00:36:28.540Z,0
2017-06-24T00:37:29.264Z,0
2017-06-24T00:38:29.988Z,0
2017-06-24T00:39:30.714Z,0
2017-06-24T00:40:31.441Z,0
2017-06-24T00:41:32.411Z,0
2017-06-24T00:42:33.136Z,0
2017-06-24T00:43:33.860Z,0
2017-06-24T00:44:34.584Z,0
2017-06-24T00:45:35.311Z,0
2017-06-24T00:46:36.282Z,0
2017-06-24T00:47:37.008Z,0
2017-06-24T00:48:37.730Z,0
2017-06-24T00:49:38.452Z,0
2017-06-24T00:50:39.179Z,0
2017-06-24T00:51:40.151Z,0
2017-06-24T00:52:40.877Z,0
2017-06-24T00:53:41.627Z,0
2017-06-24T00:54:42.350Z,0
2017-06-24T00:55:43.077Z,0
2017-06-24T00:56:44.050Z,0
2017-06-24T00:57:44.775Z,0
2017-06-24T00:58:45.525Z,0
2017-06-24T00:59:46.276Z,0
2017-06-24T01:00:47.000Z,0
2017-06-24T01:01:48.000Z,0
2017-06-24T01:02:48.725Z,0
2017-06-24T01:03:49.451Z,0
2017-06-24T01:04:50.175Z,0
2017-06-24T01:05:50.899Z,0
2017-06-24T01:06:51.874Z,0
2017-06-24T01:07:52.599Z,0
2017-06-24T01:08:53.325Z,0
2017-06-24T01:09:54.051Z,0
2017-06-24T01:10:54.773Z,0
2017-06-24T01:11:55.747Z,0
2017-06-24T01:12:56.473Z,0
2017-06-24T01:13:57.199Z,0
2017-06-24T01:14:57.925Z,0
2017-06-24T01:15:58.649Z,0
2017-06-24T01:16:59.621Z,0
2017-06-24T01:18:00.346Z,0
2017-06-24T01:19:01.070Z,0
2017-06-24T01:20:01.795Z,0
2017-06-24T01:21:02.517Z,0
2017-06-24T01:22:03.489Z,0
2017-06-24T01:23:04.215Z,0
2017-06-24T01:24:04.938Z,0
2017-06-24T01:25:05.663Z,0
2017-06-24T01:26:06.388Z,0
2017-06-24T01:27:07.364Z,0
2017-06-24T01:28:08.086Z,0
2017-06-24T01:29:08.809Z,0
2017-06-24T01:30:09.532Z,0
2017-06-24T01:31:10.255Z,0
2017-06-24T01:32:11.231Z,0
2017-06-24T01:33:11.957Z,0
2017-06-24T01:34:12.678Z,0
2017-06-24T01:35:13.402Z,0
2017-06-24T01:36:14.127Z,0
2017-06-24T01:37:15.102Z,0
2017-06-24T01:38:15.825Z,0
2017-06-24T01:39:16.550Z,0
2017-06-24T01:40:17.273Z,0
2017-06-24T01:41:17.995Z,0
2017-06-24T01:42:18.995Z,0
2017-06-24T01:43:19.721Z,0
2017-06-24T01:44:20.445Z,0
2017-06-24T01:45:21.168Z,0
2017-06-24T01:46:21.890Z,0
2017-06-24T01:47:22.865Z,0
2017-06-24T01:48:23.588Z,0
2017-06-24T01:49:24.314Z,0
2017-06-24T01:50:25.040Z,0
2017-06-24T01:51:25.766Z,0
2017-06-24T01:52:26.739Z,0
2017-06-24T01:53:27.461Z,0
2017-06-24T01:54:28.186Z,0
2017-06-24T01:55:28.911Z,0
2017-06-24T01:56:29.636Z,0
2017-06-24T01:57:30.609Z,0
2017-06-24T01:58:31.333Z,0
2017-06-24T01:59:32.057Z,0
2017-06-24T02:00:32.781Z,0
2017-06-24T02:01:33.507Z,0
2017-06-24T02:02:34.494Z,0
2017-06-24T02:03:35.218Z,0
2017-06-24T02:04:35.942Z,0
2017-06-24T02:05:36.665Z,0
2017-06-24T02:06:37.390Z,0
2017-06-24T02:07:38.362Z,0
2017-06-24T02:08:39.085Z,0
2017-06-24T02:09:39.808Z,0
2017-06-24T02:10:40.535Z,0
2017-06-24T02:11:41.257Z,0
2017-06-24T02:12:42.233Z,0
2017-06-24T02:13:42.959Z,0
2017-06-24T02:14:43.681Z,0
2017-06-24T02:15:44.408Z,0
2017-06-24T02:16:45.129Z,0
2017-06-24T02:17:46.106Z,0
2017-06-24T02:18:46.831Z,0
2017-06-24T02:19:47.553Z,0
2017-06-24T02:20:48.300Z,0
2017-06-24T02:21:49.025Z,0
2017-06-24T02:22:50.000Z,0
2017-06-24T02:23:50.726Z,0
2017-06-24T02:24:51.448Z,0
2017-06-24T02:25:52.174Z,0
2017-06-24T02:26:52.898Z,0
2017-06-24T02:27:53.901Z,0
2017-06-24T02:28:54.622Z,0
2017-06-24T02:29:55.343Z,0
2017-06-24T02:30:56.071Z,0
2017-06-24T02:31:56.794Z,0
2017-06-24T02:32:57.794Z,0
2017-06-24T02:33:58.519Z,0
2017-06-24T02:34:59.241Z,0
2017-06-24T02:35:59.962Z,0
2017-06-24T02:37:00.688Z,0
2017-06-24T02:38:01.661Z,0
2017-06-24T02:39:02.389Z,0
2017-06-24T02:40:03.108Z,0
2017-06-24T02:41:03.830Z,0
2017-06-24T02:42:04.556Z,0
2017-06-24T02:43:05.528Z,0
2017-06-24T02:44:06.251Z,0
2017-06-24T02:45:06.976Z,0
2017-06-24T02:46:07.699Z,0
2017-06-24T02:47:08.424Z,0
2017-06-24T02:48:09.396Z,0
2017-06-24T02:49:10.149Z,0
2017-06-24T02:50:10.870Z,0
2017-06-24T02:51:11.597Z,0
2017-06-24T02:52:12.343Z,0
2017-06-24T02:53:13.318Z,0
2017-06-24T02:54:14.066Z,0
2017-06-24T02:55:14.788Z,0
2017-06-24T02:56:15.512Z,0
2017-06-24T02:57:16.240Z,0
2017-06-24T02:58:17.214Z,0
2017-06-24T02:59:17.939Z,0
2017-06-24T03:00:18.662Z,0
2017-06-24T03:01:19.388Z,0
2017-06-24T03:02:20.112Z,0
2017-06-24T03:03:21.090Z,0
2017-06-24T03:04:21.815Z,0
2017-06-24T03:05:22.540Z,0
2017-06-24T03:06:23.269Z,0
2017-06-24T03:07:23.990Z,0
2017-06-24T03:08:24.966Z,0
2017-06-24T03:09:25.689Z,0
2017-06-24T03:10:26.420Z,0
2017-06-24T03:11:27.166Z,0
2017-06-24T03:12:27.892Z,0
2017-06-24T03:13:28.867Z,0
2017-06-24T03:14:29.616Z,0
2017-06-24T03:15:30.343Z,5
2017-06-24T03:16:31.068Z,5
2017-06-24T03:17:31.792Z,5
2017-06-24T03:18:32.773Z,5
2017-06-24T03:19:33.498Z,5
2017-06-24T03:20:34.221Z,5
2017-06-24T03:21:34.947Z,5
2017-06-24T03:22:35.671Z,5
2017-06-24T03:23:36.668Z,5
2017-06-24T03:24:37.372Z,5
2017-06-24T03:25:38.098Z,5
2017-06-24T03:26:38.824Z,5
2017-06-24T03:27:39.567Z,10
2017-06-24T03:28:40.542Z,10
2017-06-24T03:29:41.271Z,10
2017-06-24T03:30:41.998Z,10
2017-06-24T03:31:42.721Z,10
2017-06-24T03:32:43.447Z,10
2017-06-24T03:33:44.449Z,10
2017-06-24T03:34:45.175Z,10
2017-06-24T03:35:45.902Z,10
2017-06-24T03:36:46.628Z,10
2017-06-24T03:37:47.356Z,15
2017-06-24T03:38:48.333Z,15
2017-06-24T03:39:49.062Z,15
2017-06-24T03:40:49.789Z,15
2017-06-24T03:41:50.516Z,15
2017-06-24T03:42:51.244Z,15
2017-06-24T03:43:52.218Z,15
2017-06-24T03:44:52.948Z,15
2017-06-24T03:45:53.674Z,20
2017-06-24T03:46:54.401Z,20
2017-06-24T03:47:55.132Z,20
2017-06-24T03:48:56.109Z,20
2017-06-24T03:49:56.834Z,20
2017-06-24T03:50:57.560Z,20
2017-06-24T03:51:58.286Z,20
2017-06-24T03:52:59.014Z,20
2017-06-24T03:53:59.993Z,20
2017-06-24T03:55:00.725Z,20
2017-06-24T03:56:01.472Z,20
2017-06-24T03:57:02.198Z,20
2017-06-24T03:58:02.923Z,20
2017-06-24T03:59:03.903Z,20
2017-06-24T04:00:04.625Z,20
2017-06-24T04:01:05.352Z,20
2017-06-24T04:02:06.082Z,20
2017-06-24T04:03:06.809Z,20
2017-06-24T04:04:07.787Z,25
2017-06-24T04:05:08.511Z,25
2017-06-24T04:06:09.238Z,25
2017-06-24T04:07:09.964Z,25
2017-06-24T04:08:10.693Z,25
2017-06-24T04:09:11.665Z,25
2017-06-24T04:10:12.393Z,25
2017-06-24T04:11:13.144Z,30
2017-06-24T04:12:13.870Z,30
2017-06-24T04:13:14.598Z,30
2017-06-24T04:14:15.576Z,30
2017-06-24T04:15:16.306Z,30
2017-06-24T04:16:17.030Z,30
2017-06-24T04:17:17.761Z,30
2017-06-24T04:18:18.487Z,35
2017-06-24T04:19:19.462Z,35
2017-06-24T04:20:20.190Z,35
2017-06-24T04:21:20.920Z,35
2017-06-24T04:22:21.647Z,35
2017-06-24T04:23:22.371Z,40
2017-06-24T04:24:23.345Z,40
2017-06-24T04:25:24.074Z,40
2017-06-24T04:26:24.804Z,40
2017-06-24T04:27:25.528Z,45
2017-06-24T04:28:26.256Z,45
2017-06-24T04:29:27.258Z,45
2017-06-24T04:30:27.987Z,45
2017-06-24T04:31:28.714Z,45
2017-06-24T04:32:29.439Z,50
2017-06-24T04:33:30.165Z,50
2017-06-24T04:34:31.143Z,50
2017-06-24T04:35:31.871Z,50
2017-06-24T04:36:32.601Z,50
2017-06-24T04:37:33.330Z,50
2017-06-24T04:38:34.080Z,50
2017-06-24T04:39:35.063Z,50
2017-06-24T04:40:35.786Z,50
2017-06-24T04:41:36.519Z,50
2017-06-24T04:42:37.243Z,55
2017-06-24T04:43:37.995Z,60
2017-06-24T04:44:38.974Z,65
2017-06-24T04:45:39.699Z,65
2017-06-24T04:46:40.430Z,65
2017-06-24T04:47:41.158Z,65
2017-06-24T04:48:41.890Z,75
2017-06-24T04:49:42.864Z,80
2017-06-24T04:50:43.594Z,80
2017-06-24T04:51:44.320Z,85
2017-06-24T04:52:45.048Z,85
2017-06-24T04:53:45.777Z,90
2017-06-24T04:54:46.756Z,95
2017-06-24T04:55:47.482Z,90
2017-06-24T04:56:48.214Z,85
2017-06-24T04:57:48.942Z,80
2017-06-24T04:58:49.670Z,75
2017-06-24T04:59:50.649Z,80
2017-06-24T05:00:51.379Z,80
2017-06-24T05:01:52.128Z,75
2017-06-24T05:02:52.857Z,75
2017-06-24T05:03:53.586Z,75
2017-06-24T05:04:54.562Z,75
2017-06-24T05:05:55.292Z,80
2017-06-24T05:06:56.043Z,85
2017-06-24T05:07:56.773Z,80
2017-06-24T05:08:57.499Z,80
2017-06-24T05:09:58.480Z,70
2017-06-24T05:10:59.207Z,65
2017-06-24T05:11:59.937Z,65
2017-06-24T05:13:00.667Z,65
2017-06-24T05:14:01.395Z,65
2017-06-24T05:15:02.371Z,65
2017-06-24T05:16:03.099Z,65
2017-06-24T05:17:03.826Z,65
2017-06-24T05:18:04.556Z,65
2017-06-24T05:19:05.283Z,70
2017-06-24T05:20:06.264Z,80
2017-06-24T05:21:06.990Z,95
2017-06-24T05:22:07.720Z,95
2017-06-24T05:23:08.449Z,100
2017-06-24T05:24:09.179Z,100
2017-06-24T05:25:10.161Z,95
2017-06-24T05:26:10.890Z,85
2017-06-24T05:27:11.619Z,95
2017-06-24T05:28:12.348Z,100
2017-06-24T05:29:13.076Z,105
2017-06-24T05:30:15.482Z,110
2017-06-24T05:31:16.213Z,115
2017-06-24T05:32:16.943Z,125
2017-06-24T05:33:17.671Z,125
2017-06-24T05:34:18.401Z,135
2017-06-24T05:35:19.380Z,145
2017-06-24T05:36:20.110Z,145
2017-06-24T05:37:20.839Z,145
2017-06-24T05:38:21.571Z,135
2017-06-24T05:39:22.299Z,125
2017-06-24T05:40:23.307Z,130
2017-06-24T05:41:24.036Z,125
2017-06-24T05:42:24.766Z,120
2017-06-24T05:43:25.495Z,115
2017-06-24T05:44:26.225Z,115
2017-06-24T05:45:27.207Z,110
2017-06-24T05:46:27.936Z,115
2017-06-24T05:47:28.668Z,130
2017-06-24T05:48:29.400Z,145
2017-06-24T05:49:30.130Z,150
2017-06-24T05:50:31.112Z,150
2017-06-24T05:51:31.842Z,135
2017-06-24T05:52:32.599Z,110
2017-06-24T05:53:33.333Z,110
2017-06-24T05:54:34.062Z,120
2017-06-24T05:55:35.045Z,135
2017-06-24T05:56:35.777Z,155
2017-06-24T05:57:36.528Z,160
2017-06-24T05:58:37.261Z,160
2017-06-24T05:59:37.993Z,145
2017-06-24T06:00:38.972Z,145
2017-06-24T06:01:39.707Z,145
2017-06-24T06:02:40.438Z,135
2017-06-24T06:03:41.171Z,130
2017-06-24T06:04:41.899Z,130
2017-06-24T06:05:42.879Z,150
2017-06-24T06:06:43.610Z,160
2017-06-24T06:07:44.343Z,150
2017-06-24T06:08:45.074Z,130
2017-06-24T06:09:45.805Z,105
2017-06-24T06:10:46.788Z,100
2017-06-24T06:11:47.516Z,100
2017-06-24T06:12:48.253Z,100
2017-06-24T06:13:48.979Z,105
2017-06-24T06:14:49.708Z,115
2017-06-24T06:15:50.691Z,140
2017-06-24T06:16:51.422Z,140
2017-06-24T06:17:52.152Z,130
2017-06-24T06:18:52.888Z,115
2017-06-24T06:19:53.613Z,120
2017-06-24T06:20:54.593Z,115
2017-06-24T06:21:55.326Z,105
2017-06-24T06:22:56.056Z,110
2017-06-24T06:23:56.786Z,115
2017-06-24T06:24:57.519Z,120
2017-06-24T06:25:58.501Z,125
2017-06-24T06:26:59.231Z,130
2017-06-24T06:27:59.964Z,135
2017-06-24T06:29:00.695Z,125
2017-06-24T06:30:01.427Z,125
2017-06-24T06:31:02.405Z,125
2017-06-24T06:32:03.134Z,135
2017-06-24T06:33:03.866Z,130
2017-06-24T06:34:04.598Z,145
2017-06-24T06:35:05.327Z,160
2017-06-24T06:36:06.308Z,165
2017-06-24T06:37:07.063Z,185
2017-06-24T06:38:07.796Z,185
2017-06-24T06:39:08.527Z,175
2017-06-24T06:40:09.259Z,185
2017-06-24T06:41:10.239Z,175
2017-06-24T06:42:10.969Z,165
2017-06-24T06:43:11.700Z,160
2017-06-24T06:44:12.431Z,160
2017-06-24T06:45:13.161Z,170
2017-06-24T06:46:14.142Z,175
2017-06-24T06:47:14.873Z,195
2017-06-24T06:48:15.605Z,225
2017-06-24T06:49:16.344Z,235
2017-06-24T06:50:17.091Z,285
2017-06-24T06:51:18.073Z,355
2017-06-24T06:52:18.806Z,400
2017-06-24T06:53:19.539Z,435
2017-06-24T06:54:20.271Z,400
2017-06-24T06:55:21.003Z,445
2017-06-24T06:56:21.984Z,490
2017-06-24T06:57:22.718Z,450
2017-06-24T06:58:23.455Z,410
2017-06-24T06:59:24.183Z,385
2017-06-24T07:00:24.917Z,350
2017-06-24T07:01:25.901Z,350
2017-06-24T07:02:26.632Z,315
2017-06-24T07:03:27.363Z,280
2017-06-24T07:04:28.094Z,260
2017-06-24T07:05:28.824Z,265
2017-06-24T07:06:29.810Z,265
2017-06-24T07:07:30.564Z,260
2017-06-24T07:08:31.295Z,255
2017-06-24T07:09:32.027Z,240
2017-06-24T07:10:32.759Z,235
2017-06-24T07:11:33.745Z,225
2017-06-24T07:12:34.477Z,220
2017-06-24T07:13:35.209Z,225
2017-06-24T07:14:35.941Z,235
2017-06-24T07:15:36.671Z,235
2017-06-24T07:16:37.653Z,245
2017-06-24T07:17:38.384Z,255
2017-06-24T07:18:39.116Z,260
2017-06-24T07:19:39.848Z,300
2017-06-24T07:20:40.584Z,305
2017-06-24T07:21:41.564Z,260
2017-06-24T07:22:42.296Z,245
2017-06-24T07:23:43.031Z,275
2017-06-24T07:24:43.763Z,330
2017-06-24T07:25:44.495Z,325
2017-06-24T07:26:45.479Z,300
2017-06-24T07:27:46.211Z,275
2017-06-24T07:28:46.941Z,325
2017-06-24T07:29:47.675Z,325
2017-06-24T07:30:48.409Z,340
2017-06-24T07:31:49.417Z,355
2017-06-24T07:32:50.153Z,350
2017-06-24T07:33:50.888Z,440
2017-06-24T07:34:51.624Z,345
2017-06-24T07:35:52.358Z,345
2017-06-24T07:36:53.343Z,415
2017-06-24T07:37:54.077Z,500
2017-06-24T07:38:54.834Z,520
2017-06-24T07:39:55.568Z,555
2017-06-24T07:40:56.301Z,550
2017-06-24T07:41:57.291Z,595
2017-06-24T07:42:58.018Z,605
2017-06-24T07:43:58.750Z,560
2017-06-24T07:44:59.483Z,510
2017-06-24T07:46:00.219Z,465
2017-06-24T07:47:01.202Z,410
2017-06-24T07:48:01.962Z,390
2017-06-24T07:49:02.702Z,365
2017-06-24T07:50:03.463Z,330
2017-06-24T07:51:04.197Z,295
2017-06-24T07:52:05.179Z,275
2017-06-24T07:53:05.914Z,275
2017-06-24T07:54:06.650Z,290
2017-06-24T07:55:07.382Z,295
2017-06-24T07:56:08.112Z,305
2017-06-24T07:57:09.097Z,315
2017-06-24T07:58:09.831Z,305
2017-06-24T07:59:10.589Z,325
2017-06-24T08:00:11.324Z,320
2017-06-24T08:01:12.055Z,305
2017-06-24T08:02:13.037Z,285
2017-06-24T08:03:13.774Z,265
2017-06-24T08:04:14.501Z,245
2017-06-24T08:05:15.231Z,215
2017-06-24T08:06:15.965Z,205
2017-06-24T08:07:16.948Z,225
2017-06-24T08:08:17.677Z,275
2017-06-24T08:09:18.409Z,295
2017-06-24T08:10:19.140Z,305
2017-06-24T08:11:19.874Z,320
2017-06-24T08:12:20.859Z,345
2017-06-24T08:13:21.593Z,365
2017-06-24T08:14:22.326Z,365
2017-06-24T08:15:23.063Z,365
2017-06-24T08:16:23.795Z,350
2017-06-24T08:17:24.776Z,335
2017-06-24T08:18:25.513Z,315
2017-06-24T08:19:26.243Z,290
2017-06-24T08:20:26.977Z,275
2017-06-24T08:21:27.710Z,285
2017-06-24T08:22:28.693Z,295
2017-06-24T08:23:29.424Z,290
2017-06-24T08:24:30.158Z,290
2017-06-24T08:25:30.888Z,290
2017-06-24T08:26:31.622Z,290
2017-06-24T08:27:32.618Z,290
2017-06-24T08:28:33.349Z,270
2017-06-24T08:29:34.081Z,280
2017-06-24T08:30:34.813Z,290
2017-06-24T08:31:35.547Z,285
2017-06-24T08:32:36.526Z,290
2017-06-24T08:33:37.261Z,295
2017-06-24T08:34:37.993Z,315
2017-06-24T08:35:38.729Z,355
2017-06-24T08:36:39.462Z,380
2017-06-24T08:37:40.444Z,400
2017-06-24T08:38:41.199Z,420
2017-06-24T08:39:41.932Z,455
2017-06-24T08:40:42.689Z,475
2017-06-24T08:41:43.427Z,475
2017-06-24T08:42:44.437Z,495
2017-06-24T08:43:45.170Z,485
2017-06-24T08:44:45.902Z,445
2017-06-24T08:45:46.637Z,450
2017-06-24T08:46:47.368Z,480
2017-06-24T08:47:48.352Z,485
2017-06-24T08:48:49.083Z,485
2017-06-24T08:49:49.815Z,480
2017-06-24T08:50:50.552Z,505
2017-06-24T08:51:51.287Z,560
2017-06-24T08:52:52.272Z,675
2017-06-24T08:53:53.005Z,755
2017-06-24T08:54:53.741Z,690
2017-06-24T08:55:54.474Z,625
2017-06-24T08:56:55.210Z,650
2017-06-24T08:57:56.199Z,575
2017-06-24T08:58:56.931Z,515
2017-06-24T08:59:57.669Z,465
2017-06-24T09:00:58.406Z,420
2017-06-24T09:01:59.143Z,390
2017-06-24T09:03:00.133Z,340
2017-06-24T09:04:00.886Z,325
2017-06-24T09:05:01.623Z,315
2017-06-24T09:06:02.360Z,310
2017-06-24T09:07:03.120Z,300
2017-06-24T09:08:04.102Z,285
2017-06-24T09:09:04.836Z,270
2017-06-24T09:10:05.571Z,265
2017-06-24T09:11:06.303Z,255
2017-06-24T09:12:07.038Z,245
2017-06-24T09:13:08.020Z,235
2017-06-24T09:14:08.751Z,230
2017-06-24T09:15:09.485Z,220
2017-06-24T09:16:10.216Z,220
2017-06-24T09:17:10.948Z,220
2017-06-24T09:18:11.933Z,215
2017-06-24T09:19:12.662Z,210
2017-06-24T09:20:13.421Z,215
2017-06-24T09:21:14.177Z,205
2017-06-24T09:22:14.937Z,215
2017-06-24T09:23:15.918Z,210
2017-06-24T09:24:16.647Z,210
2017-06-24T09:25:17.382Z,215
2017-06-24T09:26:18.112Z,205
2017-06-24T09:27:18.842Z,205
2017-06-24T09:28:19.823Z,200
2017-06-24T09:29:20.553Z,210
2017-06-24T09:30:21.287Z,215
2017-06-24T09:31:22.013Z,215
2017-06-24T09:32:22.747Z,215
2017-06-24T09:33:23.729Z,220
2017-06-24T09:34:24.460Z,230
2017-06-24T09:35:25.192Z,230
2017-06-24T09:36:25.926Z,240
2017-06-24T09:37:26.654Z,240
2017-06-24T09:38:27.657Z,250
2017-06-24T09:39:28.390Z,305
2017-06-24T09:40:29.123Z,345
2017-06-24T09:41:29.855Z,335
2017-06-24T09:42:30.590Z,360
2017-06-24T09:43:31.572Z,340
2017-06-24T09:44:32.302Z,350
2017-06-24T09:45:33.038Z,315
2017-06-24T09:46:33.770Z,310
2017-06-24T09:47:34.503Z,295
2017-06-24T09:48:35.487Z,295
2017-06-24T09:49:36.218Z,325
2017-06-24T09:50:36.952Z,320
2017-06-24T09:51:37.687Z,360
2017-06-24T09:52:38.417Z,350
2017-06-24T09:53:39.422Z,310
2017-06-24T09:54:40.152Z,275
2017-06-24T09:55:40.885Z,270
2017-06-24T09:56:41.614Z,230
2017-06-24T09:57:42.345Z,225
2017-06-24T09:58:43.345Z,215
2017-06-24T09:59:44.072Z,220
2017-06-24T10:00:44.804Z,220
2017-06-24T10:01:45.535Z,210
2017-06-24T10:02:46.290Z,210
2017-06-24T10:03:47.272Z,200
2017-06-24T10:04:48.003Z,200
2017-06-24T10:05:48.736Z,210
2017-06-24T10:06:49.469Z,215
2017-06-24T10:07:50.200Z,225
2017-06-24T10:08:51.181Z,215
2017-06-24T10:09:51.912Z,215
2017-06-24T10:10:52.641Z,210
2017-06-24T10:11:53.374Z,220
2017-06-24T10:12:54.105Z,215
2017-06-24T10:13:55.087Z,205
2017-06-24T10:14:55.816Z,210
2017-06-24T10:15:56.549Z,190
2017-06-24T10:16:57.280Z,195
2017-06-24T10:17:58.014Z,190
2017-06-24T10:18:58.994Z,210
2017-06-24T10:19:59.724Z,205
2017-06-24T10:21:00.453Z,220
2017-06-24T10:22:01.183Z,230
2017-06-24T10:23:01.939Z,225
2017-06-24T10:24:02.919Z,210
2017-06-24T10:25:03.649Z,200
2017-06-24T10:26:04.378Z,195
2017-06-24T10:27:05.110Z,180
2017-06-24T10:28:05.843Z,185
2017-06-24T10:29:06.825Z,195
2017-06-24T10:30:07.556Z,230
2017-06-24T10:31:08.289Z,235
2017-06-24T10:32:09.020Z,230
2017-06-24T10:33:09.751Z,215
2017-06-24T10:34:10.734Z,215
2017-06-24T10:35:11.464Z,220
2017-06-24T10:36:12.196Z,245
2017-06-24T10:37:12.927Z,255
2017-06-24T10:38:13.681Z,225
2017-06-24T10:39:14.661Z,230
2017-06-24T10:40:15.393Z,255
2017-06-24T10:41:16.124Z,275
2017-06-24T10:42:16.854Z,255
2017-06-24T10:43:17.589Z,270
2017-06-24T10:44:18.569Z,265
2017-06-24T10:45:19.299Z,235
2017-06-24T10:46:20.029Z,230
2017-06-24T10:47:20.760Z,270
2017-06-24T10:48:21.491Z,255
2017-06-24T10:49:22.475Z,265
2017-06-24T10:50:23.206Z,270
2017-06-24T10:51:23.943Z,330
2017-06-24T10:52:24.676Z,345
2017-06-24T10:53:25.408Z,305
2017-06-24T10:54:26.416Z,265
2017-06-24T10:55:27.147Z,315
2017-06-24T10:56:27.877Z,295
2017-06-24T10:57:28.610Z,295
2017-06-24T10:58:29.344Z,315
2017-06-24T10:59:30.327Z,365
2017-06-24T11:00:31.058Z,420
2017-06-24T11:01:31.795Z,390
2017-06-24T11:02:32.527Z,355
2017-06-24T11:03:33.262Z,350
2017-06-24T11:04:34.243Z,445
2017-06-24T11:05:34.977Z,575
2017-06-24T11:06:35.711Z,520
2017-06-24T11:07:36.442Z,405
2017-06-24T11:08:37.176Z,435
2017-06-24T11:09:38.158Z,365
2017-06-24T11:10:38.890Z,405
2017-06-24T11:11:39.627Z,375
2017-06-24T11:12:40.361Z,340
2017-06-24T11:13:41.092Z,395
2017-06-24T11:14:42.077Z,460
2017-06-24T11:15:42.838Z,400
2017-06-24T11:16:43.570Z,440
2017-06-24T11:17:44.306Z,375
2017-06-24T11:18:45.038Z,375
2017-06-24T11:19:46.020Z,345
2017-06-24T11:20:46.778Z,310
2017-06-24T11:21:47.510Z,310
2017-06-24T11:22:48.244Z,315
2017-06-24T11:23:48.974Z,375
2017-06-24T11:24:49.960Z,350
2017-06-24T11:25:50.693Z,385
2017-06-24T11:26:51.424Z,480
2017-06-24T11:27:52.155Z,460
2017-06-24T11:28:52.889Z,370
2017-06-24T11:29:53.877Z,300
2017-06-24T11:30:54.605Z,255
2017-06-24T11:31:55.338Z,255
2017-06-24T11:32:56.069Z,245
2017-06-24T11:33:56.800Z,225
2017-06-24T11:34:57.783Z,210
2017-06-24T11:35:58.512Z,235
2017-06-24T11:36:59.246Z,260
2017-06-24T11:37:59.977Z,250
2017-06-24T11:39:00.705Z,230
2017-06-24T11:40:01.689Z,255
2017-06-24T11:41:02.443Z,260
2017-06-24T11:42:03.172Z,270
2017-06-24T11:43:03.905Z,275
2017-06-24T11:44:04.638Z,250
2017-06-24T11:45:05.617Z,240
2017-06-24T11:46:06.375Z,205
2017-06-24T11:47:07.106Z,225
2017-06-24T11:48:07.839Z,255
2017-06-24T11:49:08.569Z,290
2017-06-24T11:50:09.549Z,330
2017-06-24T11:51:10.282Z,390
2017-06-24T11:52:11.014Z,405
2017-06-24T11:53:11.769Z,355
2017-06-24T11:54:12.505Z,340
2017-06-24T11:55:13.490Z,260
2017-06-24T11:56:14.218Z,215
2017-06-24T11:57:14.953Z,185
2017-06-24T11:58:15.684Z,205
2017-06-24T11:59:16.417Z,195
2017-06-24T12:00:17.396Z,195
2017-06-24T12:01:18.131Z,205
2017-06-24T12:02:18.860Z,185
2017-06-24T12:03:19.589Z,190
2017-06-24T12:04:20.324Z,235
2017-06-24T12:05:21.305Z,210
2017-06-24T12:06:22.061Z,180
2017-06-24T12:07:22.792Z,135
2017-06-24T12:08:23.524Z,145
2017-06-24T12:09:24.254Z,155
2017-06-24T12:10:25.235Z,165
2017-06-24T12:11:25.967Z,210
2017-06-24T12:12:26.697Z,220
2017-06-24T12:13:27.428Z,150
2017-06-24T12:14:28.159Z,175
2017-06-24T12:15:29.141Z,215
2017-06-24T12:16:29.897Z,205
2017-06-24T12:17:30.625Z,210
2017-06-24T12:18:31.359Z,190
2017-06-24T12:19:32.089Z,180
2017-06-24T12:20:33.071Z,160
2017-06-24T12:21:33.802Z,170
2017-06-24T12:22:34.560Z,175
2017-06-24T12:23:35.292Z,175
2017-06-24T12:24:36.021Z,175
2017-06-24T12:25:37.003Z,145
2017-06-24T12:26:37.733Z,135
2017-06-24T12:27:38.466Z,140
2017-06-24T12:28:39.198Z,140
2017-06-24T12:29:39.926Z,140
2017-06-24T12:30:40.907Z,145
2017-06-24T12:31:41.639Z,155
2017-06-24T12:32:42.366Z,140
2017-06-24T12:33:43.099Z,140
2017-06-24T12:34:43.828Z,145
2017-06-24T12:35:44.810Z,140
2017-06-24T12:36:45.540Z,135
2017-06-24T12:37:46.270Z,115
2017-06-24T12:38:46.998Z,115
2017-06-24T12:39:47.738Z,125
2017-06-24T12:40:48.721Z,130
2017-06-24T12:41:49.450Z,140
2017-06-24T12:42:50.181Z,150
2017-06-24T12:43:50.914Z,180
2017-06-24T12:44:51.644Z,220
2017-06-24T12:45:52.627Z,210
2017-06-24T12:46:53.360Z,190
2017-06-24T12:47:54.088Z,165
2017-06-24T12:48:54.819Z,145
2017-06-24T12:49:55.550Z,145
2017-06-24T12:50:56.531Z,140
2017-06-24T12:51:57.262Z,155
2017-06-24T12:52:57.990Z,170
2017-06-24T12:53:58.721Z,185
2017-06-24T12:54:59.453Z,160
2017-06-24T12:56:00.431Z,160
2017-06-24T12:57:01.161Z,155
2017-06-24T12:58:01.890Z,150
2017-06-24T12:59:02.623Z,150
2017-06-24T13:00:03.359Z,145
2017-06-24T13:01:04.338Z,155
2017-06-24T13:02:05.070Z,170
2017-06-24T13:03:05.805Z,160
2017-06-24T13:04:06.531Z,150
2017-06-24T13:05:07.261Z,150
2017-06-24T13:06:08.243Z,135
2017-06-24T13:07:08.973Z,140
2017-06-24T13:08:09.703Z,165
2017-06-24T13:09:10.433Z,195
2017-06-24T13:10:11.162Z,175
2017-06-24T13:11:12.143Z,155
2017-06-24T13:12:12.873Z,140
2017-06-24T13:13:13.601Z,135
2017-06-24T13:14:14.334Z,140
2017-06-24T13:15:15.061Z,135
2017-06-24T13:16:16.044Z,125
2017-06-24T13:17:16.773Z,120
2017-06-24T13:18:17.502Z,115
2017-06-24T13:19:18.235Z,120
2017-06-24T13:20:18.968Z,120
2017-06-24T13:21:19.947Z,125
2017-06-24T13:22:20.678Z,125
2017-06-24T13:23:21.409Z,130
2017-06-24T13:24:22.136Z,130
2017-06-24T13:25:22.891Z,125
2017-06-24T13:26:23.874Z,110
2017-06-24T13:27:24.606Z,100
2017-06-24T13:28:25.336Z,95
2017-06-24T13:29:26.064Z,100
2017-06-24T13:30:26.793Z,105
2017-06-24T13:31:27.777Z,100
2017-06-24T13:32:28.529Z,95
2017-06-24T13:33:29.256Z,90
2017-06-24T13:34:29.982Z,95
2017-06-24T13:35:30.713Z,95
2017-06-24T13:36:31.696Z,100
2017-06-24T13:37:32.424Z,110
2017-06-24T13:38:33.153Z,120
2017-06-24T13:39:33.887Z,125
2017-06-24T13:40:34.615Z,105
2017-06-24T13:41:35.597Z,95
2017-06-24T13:42:36.327Z,110
2017-06-24T13:43:37.058Z,125
2017-06-24T13:44:37.787Z,125
2017-06-24T13:45:38.518Z,125
2017-06-24T13:46:39.519Z,130
2017-06-24T13:47:40.250Z,135
2017-06-24T13:48:40.981Z,140
2017-06-24T13:49:41.710Z,135
2017-06-24T13:50:42.442Z,125
2017-06-24T13:51:43.421Z,115
2017-06-24T13:52:44.149Z,110
2017-06-24T13:53:44.904Z,120
2017-06-24T13:54:45.633Z,135
2017-06-24T13:55:46.367Z,160
2017-06-24T13:56:47.345Z,200
2017-06-24T13:57:48.078Z,210
2017-06-24T13:58:48.811Z,165
2017-06-24T13:59:49.540Z,170
2017-06-24T14:00:50.273Z,175
2017-06-24T14:01:51.259Z,190
2017-06-24T14:02:52.008Z,200
2017-06-24T14:03:52.740Z,220
2017-06-24T14:04:53.469Z,240
2017-06-24T14:05:54.226Z,225
2017-06-24T14:06:55.204Z,230
2017-06-24T14:07:55.935Z,250
2017-06-24T14:08:56.666Z,285
2017-06-24T14:09:57.399Z,305
2017-06-24T14:10:58.129Z,280
2017-06-24T14:11:59.111Z,245
2017-06-24T14:12:59.841Z,215
2017-06-24T14:14:00.573Z,215
2017-06-24T14:15:01.334Z,250